Time;durP1;ratioP1;P1;durP2;ratioP2;P2;SDS_P1;SDS_P2;PMS_P1;PMS_P2;Temp;Humidity;BMP_temperature;BMP_pressure;BME280_temperature;BME280_humidity;BME280_pressure;Samples;Min_cycle;Max_cycle;Signal;HPM_P1;HPM_P2
2022/01/06 00:00:45;;;;;;;11.55;2.40;;;;;;;3.81;86.81;101655.97;4844450;29;20071;-83
2022/01/06 00:03:10;;;;;;;13.98;3.05;;;;;;;3.84;86.79;101653.38;4844198;29;20030;-75
2022/01/06 00:05:35;;;;;;;14.75;2.40;;;;;;;3.84;87.02;101656.84;4843968;29;20058;-73
2022/01/06 00:08:02;;;;;;;18.55;3.20;;;;;;;3.85;87.47;101665.56;4831407;29;20476;-76
2022/01/06 00:10:29;;;;;;;17.23;2.53;;;;;;;3.80;87.39;101668.22;4841237;29;20030;-76
2022/01/06 00:25:45;;;;;;;17.38;2.50;;;;;;;3.94;85.77;101681.28;4844140;29;20046;-74
2022/01/06 00:28:11;;;;;;;14.93;2.47;;;;;;;3.99;84.39;101681.25;4844092;29;20030;-82
2022/01/06 00:30:37;;;;;;;15.85;2.10;;;;;;;3.96;83.70;101676.88;4843556;29;20463;-77
2022/01/06 00:33:02;;;;;;;13.63;2.15;;;;;;;3.94;83.79;101671.66;4843752;29;20021;-78
2022/01/06 00:35:27;;;;;;;12.90;2.33;;;;;;;3.92;83.78;101683.03;4843553;29;20030;-77
2022/01/06 00:37:53;;;;;;;13.85;2.38;;;;;;;3.89;83.48;101675.19;4843365;29;20034;-79
2022/01/06 00:40:18;;;;;;;10.23;2.42;;;;;;;3.84;83.75;101679.56;4843439;29;20026;-82
2022/01/06 00:42:43;;;;;;;12.52;1.90;;;;;;;3.79;84.28;101690.06;4843114;29;20082;-82
2022/01/06 00:45:09;;;;;;;14.30;2.15;;;;;;;3.80;83.59;101686.56;4843424;29;20067;-74
2022/01/06 00:47:34;;;;;;;11.65;2.33;;;;;;;3.77;83.43;101673.47;4843523;29;20034;-74
2022/01/06 00:50:00;;;;;;;13.52;2.00;;;;;;;3.72;83.90;101680.47;4843352;29;20116;-83
2022/01/06 00:52:25;;;;;;;16.00;3.22;;;;;;;3.72;83.64;101689.22;4842045;29;20056;-76
2022/01/06 00:54:51;;;;;;;16.75;3.75;;;;;;;3.68;83.90;101682.22;4843363;29;20030;-80
2022/01/06 00:57:16;;;;;;;15.48;2.45;;;;;;;3.69;83.49;101683.09;4843117;29;20398;-75
2022/01/06 00:59:41;;;;;;;14.32;2.03;;;;;;;3.65;84.15;101692.72;4843262;29;20065;-83
2022/01/06 01:02:06;;;;;;;18.48;2.65;;;;;;;3.69;84.25;101690.97;4842904;29;20519;-81
2022/01/06 01:04:32;;;;;;;13.15;1.83;;;;;;;3.68;83.91;101695.31;4843340;29;20119;-82
2022/01/06 01:06:57;;;;;;;16.15;2.53;;;;;;;3.69;83.97;101697.06;4842992;29;20025;-82
2022/01/06 01:09:23;;;;;;;11.88;2.50;;;;;;;3.73;83.76;101706.69;4842858;29;20030;-74
2022/01/06 01:11:48;;;;;;;14.88;2.40;;;;;;;3.71;83.78;101704.91;4842943;29;20471;-74
2022/01/06 01:14:27;;;;;;;16.70;2.78;;;;;;;3.71;84.26;101699.66;4842230;29;20128;-79
2022/01/06 01:16:55;;;;;;;18.30;2.88;;;;;;;3.73;84.09;101705.78;4843005;29;20441;-77
2022/01/06 01:19:21;;;;;;;14.88;2.20;;;;;;;3.69;84.38;101712.78;4857250;29;20034;-79
2022/01/06 01:21:47;;;;;;;18.77;2.38;;;;;;;3.62;84.91;101721.53;4843069;29;20037;-83
2022/01/06 01:24:12;;;;;;;14.90;2.55;;;;;;;3.53;85.29;101711.06;4840859;29;20447;-74
2022/01/06 01:26:38;;;;;;;14.45;2.65;;;;;;;3.43;86.44;101711.06;4842728;29;20094;-82
2022/01/06 01:29:04;;;;;;;16.55;2.85;;;;;;;3.37;86.73;101715.47;4842979;29;20082;-82
2022/01/06 01:31:36;;;;;;;17.90;2.45;;;;;;;3.28;87.32;101725.03;4842730;29;20495;-80
2022/01/06 01:34:08;;;;;;;10.32;2.42;;;;;;;3.23;87.26;101721.56;4842516;29;20050;-82
2022/01/06 01:36:33;;;;;;;13.13;2.25;;;;;;;3.11;87.44;101717.19;4842106;29;20162;-82
2022/01/06 01:38:59;;;;;;;16.65;2.47;;;;;;;2.99;87.94;101727.66;4842865;29;20117;-78
2022/01/06 01:41:24;;;;;;;15.93;2.92;;;;;;;2.87;88.31;101728.50;4842610;29;20038;-83
2022/01/06 01:43:50;;;;;;;13.70;2.10;;;;;;;2.76;89.37;101727.63;4842826;29;20033;-74
2022/01/06 01:46:19;;;;;;;15.48;2.55;;;;;;;2.68;90.07;101729.38;4842100;29;20018;-74
2022/01/06 01:49:09;;;;;;;14.48;2.70;;;;;;;2.63;90.38;101742.41;4854849;29;20044;-82
2022/01/06 01:51:33;;;;;;;11.02;2.08;;;;;;;2.60;91.39;101740.66;4847227;29;20394;-81
2022/01/06 01:54:00;;;;;;;12.40;1.98;;;;;;;2.63;92.13;101739.81;4842291;29;20501;-83
2022/01/06 01:56:25;;;;;;;11.30;2.50;;;;;;;2.72;92.80;101755.50;4841903;29;20117;-78
2022/01/06 01:58:51;;;;;;;15.13;2.75;;;;;;;2.76;92.78;101751.16;4842407;29;20121;-76
2022/01/06 02:01:16;;;;;;;12.75;1.90;;;;;;;2.77;92.33;101753.78;4842603;29;20044;-74
2022/01/06 02:03:41;;;;;;;17.50;2.28;;;;;;;2.81;91.88;101743.34;4842154;29;20068;-82
2022/01/06 02:06:07;;;;;;;13.88;2.20;;;;;;;2.80;91.80;101734.63;4842285;29;20022;-77
2022/01/06 02:08:32;;;;;;;18.25;3.17;;;;;;;2.79;91.91;101749.44;4841126;29;20542;-83
2022/01/06 02:10:58;;;;;;;14.57;2.30;;;;;;;2.76;92.18;101754.66;4842279;29;20026;-83
2022/01/06 02:13:28;;;;;;;14.07;2.22;;;;;;;2.73;92.58;101752.03;4842281;29;20041;-74
2022/01/06 02:15:53;;;;;;;14.80;2.58;;;;;;;2.71;92.64;101756.41;4842287;29;20030;-75
2022/01/06 02:18:19;;;;;;;16.48;2.40;;;;;;;2.67;92.23;101759.00;4839089;29;20039;-82
2022/01/06 02:20:44;;;;;;;15.60;2.50;;;;;;;2.65;93.39;101760.72;4828058;29;20027;-77
2022/01/06 02:23:10;;;;;;;16.05;2.60;;;;;;;2.60;93.29;101764.19;4823465;29;20399;-78
2022/01/06 02:25:35;;;;;;;11.65;2.20;;;;;;;2.53;93.94;101767.69;4824196;29;20376;-83
2022/01/06 02:28:02;;;;;;;12.60;2.45;;;;;;;2.45;93.99;101766.75;4833853;29;20045;-75
2022/01/06 02:30:29;;;;;;;12.13;2.08;;;;;;;2.38;93.76;101767.59;4842157;29;20033;-84
2022/01/06 02:32:54;;;;;;;15.73;2.42;;;;;;;2.39;95.89;101759.78;4841912;29;20163;-73
2022/01/06 02:35:24;;;;;;;17.80;2.88;;;;;;;2.53;95.90;101774.63;4842049;29;20121;-79
2022/01/06 02:37:49;;;;;;;12.27;2.28;;;;;;;2.60;95.82;101774.66;4841011;29;20041;-73
2022/01/06 02:40:18;;;;;;;16.48;2.42;;;;;;;2.64;95.24;101777.31;4841833;29;20090;-83
2022/01/06 02:42:47;;;;;;;15.90;2.15;;;;;;;2.72;95.00;101779.03;4841750;29;20454;-82
2022/01/06 02:45:12;;;;;;;11.25;2.22;;;;;;;2.77;94.86;101773.84;4841833;29;20026;-73
2022/01/06 02:47:41;;;;;;;14.13;2.55;;;;;;;2.82;95.12;101785.19;4841883;29;20419;-75
2022/01/06 02:50:08;;;;;;;15.02;1.77;;;;;;;2.95;94.56;101794.84;4841550;29;20045;-82
2022/01/06 02:52:34;;;;;;;12.18;1.90;;;;;;;3.05;94.32;101790.47;4841173;29;20054;-77
2022/01/06 02:54:59;;;;;;;13.05;2.10;;;;;;;3.11;93.61;101790.47;4841383;29;20121;-74
2022/01/06 02:57:24;;;;;;;13.52;2.15;;;;;;;3.15;94.28;101800.97;4841519;29;20026;-80
2022/01/06 02:59:50;;;;;;;10.20;1.83;;;;;;;3.22;94.03;101794.84;4840616;29;20041;-76
2022/01/06 03:02:15;;;;;;;16.02;2.28;;;;;;;3.27;93.62;101787.88;4841811;29;20117;-78
2022/01/06 03:04:40;;;;;;;13.73;2.40;;;;;;;3.31;93.40;101784.38;4841621;29;20045;-74
2022/01/06 03:07:07;;;;;;;16.33;2.53;;;;;;;3.41;91.98;101783.50;4841667;29;20059;-76
2022/01/06 03:09:41;;;;;;;12.95;2.58;;;;;;;3.52;90.71;101782.66;4841174;29;20038;-78
2022/01/06 03:12:20;;;;;;;13.30;1.83;;;;;;;3.55;90.17;101783.50;4841831;29;20032;-73
2022/01/06 03:14:46;;;;;;;9.23;1.70;;;;;;;3.51;89.69;101778.28;4842639;29;20069;-81
2022/01/06 03:17:11;;;;;;;13.35;1.70;;;;;;;3.53;87.47;101776.53;4845143;29;20474;-74
2022/01/06 03:19:36;;;;;;;11.98;2.00;;;;;;;3.63;83.46;101773.03;4844941;29;20041;-79
2022/01/06 03:22:02;;;;;;;7.15;1.27;;;;;;;3.67;83.27;101772.19;4844496;29;20034;-80
2022/01/06 03:24:28;;;;;;;6.43;1.23;;;;;;;3.67;84.07;101777.41;4844928;29;20530;-82
2022/01/06 03:26:53;;;;;;;7.05;1.35;;;;;;;3.64;84.73;101792.25;4845127;29;20026;-73
2022/01/06 03:29:18;;;;;;;10.13;1.35;;;;;;;3.60;85.12;101794.00;4845191;29;20087;-81
2022/01/06 03:31:43;;;;;;;6.75;1.45;;;;;;;3.64;85.66;101787.88;4844215;29;20391;-81
2022/01/06 03:34:09;;;;;;;9.10;1.30;;;;;;;3.71;85.35;101801.84;4844747;29;20030;-75
2022/01/06 03:36:35;;;;;;;8.30;1.75;;;;;;;3.71;86.77;101812.31;4844953;29;20030;-74
2022/01/06 03:39:01;;;;;;;9.43;1.60;;;;;;;3.67;88.66;101821.06;4847231;29;20470;-74
2022/01/06 03:41:26;;;;;;;6.72;1.33;;;;;;;3.71;90.70;101826.31;4846626;29;20033;-75
2022/01/06 03:43:51;;;;;;;11.68;2.20;;;;;;;3.72;92.33;101825.44;4844829;29;20037;-75
2022/01/06 03:46:17;;;;;;;11.43;1.98;;;;;;;3.71;93.36;101822.78;4846152;29;20033;-73
2022/01/06 03:48:42;;;;;;;7.57;1.50;;;;;;;3.59;94.60;101821.94;4845277;29;20030;-79
2022/01/06 03:51:07;;;;;;;8.25;1.55;;;;;;;3.44;94.85;101825.44;4844714;29;20042;-83
2022/01/06 03:53:32;;;;;;;10.55;2.25;;;;;;;3.28;95.46;101824.53;4844401;29;20086;-82
2022/01/06 03:55:58;;;;;;;9.27;1.77;;;;;;;3.14;97.17;101831.50;4844217;29;20037;-74
2022/01/06 03:58:23;;;;;;;12.32;1.65;;;;;;;3.04;97.23;101835.81;4844134;29;20030;-73
2022/01/06 04:00:48;;;;;;;12.70;1.67;;;;;;;3.00;98.23;101827.97;4844528;29;20034;-84
2022/01/06 04:03:14;;;;;;;8.63;1.55;;;;;;;2.94;98.24;101826.19;4843890;29;20053;-83
2022/01/06 04:05:39;;;;;;;8.43;1.65;;;;;;;2.88;98.97;101837.53;4844514;29;20475;-74
2022/01/06 04:08:05;;;;;;;12.48;1.27;;;;;;;2.86;99.19;101834.03;4844214;29;20038;-73
2022/01/06 04:10:30;;;;;;;10.75;1.70;;;;;;;2.81;98.86;101832.28;4844112;29;20026;-80
2022/01/06 04:12:56;;;;;;;6.25;1.67;;;;;;;2.72;99.59;101823.50;4844027;29;20169;-79
2022/01/06 04:15:24;;;;;;;5.22;1.25;;;;;;;2.60;99.53;101832.19;4843449;29;20049;-79
2022/01/06 04:17:50;;;;;;;9.15;1.27;;;;;;;2.51;99.73;101829.53;4844132;29;20034;-76
2022/01/06 04:20:15;;;;;;;10.10;1.58;;;;;;;2.40;99.52;101826.00;4844140;29;20040;-79
2022/01/06 04:22:41;;;;;;;5.85;0.98;;;;;;;2.29;99.21;101821.59;4843723;29;20083;-75
2022/01/06 04:25:07;;;;;;;11.70;1.52;;;;;;;2.23;100.00;101823.31;4843278;29;20068;-76
2022/01/06 04:27:33;;;;;;;9.13;2.08;;;;;;;2.18;100.00;101828.50;4843908;29;20050;-83
2022/01/06 04:29:58;;;;;;;10.32;1.50;;;;;;;2.14;100.00;101839.81;4843715;29;20100;-75
2022/01/06 04:32:23;;;;;;;11.02;2.60;;;;;;;2.13;100.00;101843.28;4843973;29;20034;-84
2022/01/06 04:34:49;;;;;;;11.30;1.48;;;;;;;2.07;100.00;101844.13;4843436;29;20018;-84
2022/01/06 04:37:14;;;;;;;5.97;0.98;;;;;;;2.05;100.00;101850.19;4843634;29;20030;-78
2022/01/06 04:39:40;;;;;;;9.73;1.60;;;;;;;2.04;100.00;101846.69;4848603;29;20082;-77
2022/01/06 04:42:05;;;;;;;8.77;1.52;;;;;;;2.02;100.00;101845.84;4853570;29;20097;-75
2022/01/06 04:44:30;;;;;;;8.20;2.50;;;;;;;2.13;100.00;101832.81;4846062;29;20085;-78
2022/01/06 04:46:56;;;;;;;18.08;8.80;;;;;;;2.23;100.00;101839.84;4843362;29;20360;-81
2022/01/06 04:49:22;;;;;;;8.05;2.28;;;;;;;2.28;100.00;101835.53;4843553;29;20069;-77
2022/01/06 04:51:48;;;;;;;21.13;8.43;;;;;;;2.29;100.00;101847.72;4843568;29;20034;-80
2022/01/06 04:54:13;;;;;;;23.75;11.45;;;;;;;2.30;100.00;101843.38;4843108;29;20041;-74
2022/01/06 04:56:39;;;;;;;24.05;9.65;;;;;;;2.24;100.00;101833.75;4842737;29;20038;-83
2022/01/06 04:59:09;;;;;;;19.73;7.07;;;;;;;2.23;100.00;101852.91;4843380;29;20049;-76
2022/01/06 05:01:35;;;;;;;17.80;6.30;;;;;;;2.24;100.00;101853.81;4843297;29;20034;-73
2022/01/06 05:04:01;;;;;;;12.43;4.78;;;;;;;2.33;100.00;101858.19;4843344;29;20030;-80
2022/01/06 05:06:27;;;;;;;8.98;3.95;;;;;;;2.40;100.00;101853.00;4842734;29;20475;-76
2022/01/06 05:08:53;;;;;;;5.10;1.92;;;;;;;2.37;100.00;101868.69;4842883;29;20048;-75
2022/01/06 05:11:18;;;;;;;12.20;2.70;;;;;;;2.34;100.00;101857.34;4843060;29;20034;-78
2022/01/06 05:13:44;;;;;;;9.95;2.58;;;;;;;2.28;100.00;101850.34;4842495;29;20046;-74
2022/01/06 05:16:09;;;;;;;11.40;2.35;;;;;;;2.22;100.00;101861.63;4842970;29;20034;-77
2022/01/06 05:18:35;;;;;;;12.68;2.10;;;;;;;2.22;100.00;101860.75;4842556;29;20423;-78
2022/01/06 05:21:01;;;;;;;14.05;3.55;;;;;;;2.24;100.00;101862.50;4843227;29;20034;-78
2022/01/06 05:23:26;;;;;;;10.07;2.47;;;;;;;2.24;100.00;101861.66;4843042;29;20090;-75
2022/01/06 05:25:52;;;;;;;7.47;2.25;;;;;;;2.19;100.00;101869.44;4842283;29;20029;-74
2022/01/06 05:28:17;;;;;;;9.38;2.58;;;;;;;2.11;100.00;101874.63;4842368;29;20521;-74
2022/01/06 05:30:42;;;;;;;12.55;2.55;;;;;;;2.00;100.00;101865.84;4842902;29;20034;-82
2022/01/06 05:33:10;;;;;;;11.68;2.40;;;;;;;1.93;100.00;101864.91;4842647;29;20034;-81
2022/01/06 05:35:35;;;;;;;13.23;2.70;;;;;;;1.94;100.00;101866.69;4842409;29;20049;-79
2022/01/06 05:38:00;;;;;;;16.85;2.72;;;;;;;1.93;100.00;101861.41;4841547;29;20428;-81
2022/01/06 05:40:26;;;;;;;12.73;2.80;;;;;;;1.91;100.00;101863.16;4841839;29;20073;-73
2022/01/06 05:42:51;;;;;;;9.48;2.35;;;;;;;1.83;100.00;101863.09;4842579;29;20034;-74
2022/01/06 05:45:17;;;;;;;11.38;2.45;;;;;;;1.72;100.00;101868.22;4842644;29;20082;-77
2022/01/06 05:47:43;;;;;;;11.38;2.25;;;;;;;1.63;100.00;101865.53;4842117;29;20030;-80
2022/01/06 05:50:09;;;;;;;10.02;2.72;;;;;;;1.55;100.00;101867.19;4842080;29;20036;-75
2022/01/06 05:52:35;;;;;;;6.70;1.65;;;;;;;1.47;100.00;101877.56;4842165;29;20025;-73
2022/01/06 05:55:01;;;;;;;7.15;1.88;;;;;;;1.42;100.00;101880.16;4842303;29;20069;-78
2022/01/06 05:57:27;;;;;;;19.17;2.20;;;;;;;1.50;100.00;101881.94;4841693;29;20066;-74
2022/01/06 05:59:52;;;;;;;14.95;3.05;;;;;;;1.59;100.00;101889.88;4841854;29;20473;-74
2022/01/06 06:02:17;;;;;;;13.38;2.35;;;;;;;1.60;100.00;101894.25;4841893;29;20034;-74
2022/01/06 06:04:42;;;;;;;13.57;3.00;;;;;;;1.54;100.00;101888.97;4842175;29;20872;-76
2022/01/06 06:07:08;;;;;;;8.48;2.75;;;;;;;1.44;100.00;101901.91;4841579;29;20034;-79
2022/01/06 06:09:33;;;;;;;16.10;2.13;;;;;;;1.34;100.00;101893.97;4841264;29;20135;-74
2022/01/06 06:11:58;;;;;;;10.55;2.05;;;;;;;1.26;100.00;101897.38;4838697;29;20117;-79
2022/01/06 06:14:24;;;;;;;11.82;2.67;;;;;;;1.25;100.00;101895.63;4841207;29;20069;-76
2022/01/06 06:16:49;;;;;;;14.70;2.00;;;;;;;1.29;100.00;101899.13;4841301;29;20479;-79
2022/01/06 06:19:14;;;;;;;11.02;1.95;;;;;;;1.30;100.00;101907.00;4841764;29;20482;-78
2022/01/06 06:21:40;;;;;;;8.48;2.03;;;;;;;1.29;100.00;101904.34;4841994;29;20037;-79
2022/01/06 06:24:06;;;;;;;14.05;2.42;;;;;;;1.27;100.00;101903.47;4841636;29;20026;-79
2022/01/06 06:26:31;;;;;;;6.38;1.63;;;;;;;1.24;100.00;101904.31;4841927;29;20030;-77
2022/01/06 06:28:56;;;;;;;11.82;2.05;;;;;;;1.20;100.00;101919.91;4841271;29;20543;-80
2022/01/06 06:31:22;;;;;;;9.68;1.90;;;;;;;1.19;100.00;101928.59;4841642;29;20581;-78
2022/01/06 06:33:47;;;;;;;11.02;1.80;;;;;;;1.18;100.00;101925.13;4841371;29;20034;-77
2022/01/06 06:36:12;;;;;;;10.27;2.13;;;;;;;1.16;100.00;101925.97;4841048;29;20026;-76
2022/01/06 06:38:38;;;;;;;11.30;1.85;;;;;;;1.09;100.00;101927.63;4841284;29;20042;-83
2022/01/06 06:41:04;;;;;;;12.60;2.40;;;;;;;1.01;100.00;101929.25;4841543;29;20029;-83
2022/01/06 06:43:29;;;;;;;12.68;2.42;;;;;;;0.97;100.00;101931.84;4840951;29;20071;-74
2022/01/06 06:45:54;;;;;;;15.75;2.40;;;;;;;0.97;100.00;101943.97;4840090;29;20046;-77
2022/01/06 06:48:21;;;;;;;10.88;2.20;;;;;;;0.93;100.00;101939.59;4841905;29;20065;-74
2022/01/06 06:50:47;;;;;;;11.35;2.30;;;;;;;0.94;100.00;101938.75;4844173;29;20036;-79
2022/01/06 06:53:12;;;;;;;3.90;1.60;;;;;;;0.86;100.00;101937.75;4845297;29;20033;-74
2022/01/06 06:55:37;;;;;;;10.50;1.98;;;;;;;0.81;100.00;101950.75;4843329;29;20137;-81
2022/01/06 06:58:03;;;;;;;11.70;2.22;;;;;;;0.77;100.00;101944.59;4844951;29;20038;-75
2022/01/06 07:00:28;;;;;;;11.20;2.85;;;;;;;0.87;100.00;101931.69;4844365;29;20475;-82
2022/01/06 07:02:54;;;;;;;21.20;3.38;;;;;;;0.94;100.00;101934.38;4845136;29;20057;-80
2022/01/06 07:05:19;;;;;;;17.80;3.78;;;;;;;0.94;100.00;101944.81;4844609;29;20030;-81
2022/01/06 07:07:45;;;;;;;23.30;4.70;;;;;;;0.91;100.00;101938.69;4844597;29;20539;-77
2022/01/06 07:10:11;;;;;;;20.42;4.38;;;;;;;0.91;100.00;101936.06;4844220;29;20030;-81
2022/01/06 07:12:40;;;;;;;21.60;4.00;;;;;;;0.94;100.00;101939.59;4844068;29;20038;-74
2022/01/06 07:15:11;;;;;;;13.15;2.88;;;;;;;1.00;100.00;101933.59;4844209;29;20061;-74
2022/01/06 07:17:36;;;;;;;14.05;3.20;;;;;;;1.00;100.00;101938.81;4844120;29;20030;-76
2022/01/06 07:20:02;;;;;;;17.33;3.55;;;;;;;1.02;100.00;101944.06;4844797;29;20391;-79
2022/01/06 07:22:27;;;;;;;18.15;3.58;;;;;;;1.04;100.00;101944.97;4844223;29;20396;-79
2022/01/06 07:24:52;;;;;;;16.80;3.58;;;;;;;1.03;100.00;101951.03;4844393;29;20497;-80
2022/01/06 07:27:18;;;;;;;22.80;3.90;;;;;;;0.97;100.00;101952.69;4847525;29;20064;-80
2022/01/06 07:29:43;;;;;;;21.75;4.68;;;;;;;0.94;100.00;101951.78;4845351;29;20037;-81
2022/01/06 07:32:08;;;;;;;22.05;4.15;;;;;;;0.97;100.00;101960.53;4844224;29;20486;-76
2022/01/06 07:34:34;;;;;;;19.35;3.70;;;;;;;1.00;100.00;101957.09;4844809;29;20440;-78
2022/01/06 07:36:59;;;;;;;12.15;3.40;;;;;;;0.96;100.00;101957.91;4845682;29;20482;-81
2022/01/06 07:39:25;;;;;;;13.75;3.10;;;;;;;0.90;100.00;101958.69;4845950;29;20034;-77
2022/01/06 07:41:51;;;;;;;18.15;4.05;;;;;;;0.86;100.00;101959.50;4856854;29;20029;-79
2022/01/06 07:44:17;;;;;;;16.55;3.67;;;;;;;0.84;100.00;101957.72;4854753;29;20018;-76
2022/01/06 07:46:45;;;;;;;22.33;3.40;;;;;;;0.83;100.00;101962.06;4843939;29;20030;-76
2022/01/06 07:49:10;;;;;;;14.63;3.75;;;;;;;0.89;100.00;101956.06;4844411;29;20048;-83
2022/01/06 07:51:35;;;;;;;10.85;3.35;;;;;;;0.95;100.00;101972.66;4844032;29;20030;-78
2022/01/06 07:54:01;;;;;;;14.48;3.50;;;;;;;0.91;100.00;101969.97;4843894;29;20068;-81
2022/01/06 07:56:26;;;;;;;14.60;3.85;;;;;;;0.88;100.00;101978.63;4844118;29;20058;-75
2022/01/06 07:58:52;;;;;;;18.27;4.03;;;;;;;0.95;100.00;101979.63;4843825;29;20030;-80
2022/01/06 08:01:18;;;;;;;17.90;4.53;;;;;;;0.96;100.00;101969.19;4843389;29;20036;-75
2022/01/06 08:03:43;;;;;;;16.00;4.30;;;;;;;0.96;100.00;101976.16;4843638;29;20166;-79
2022/01/06 08:06:10;;;;;;;16.55;4.32;;;;;;;0.98;100.00;101984.88;4843700;29;20373;-80
2022/01/06 08:08:36;;;;;;;17.02;4.00;;;;;;;0.99;100.00;101984.00;4843590;29;20509;-81
2022/01/06 08:11:01;;;;;;;14.52;2.85;;;;;;;1.06;100.00;101995.41;4844450;29;20038;-78
2022/01/06 08:13:26;;;;;;;12.98;3.28;;;;;;;1.10;100.00;101995.47;4843427;29;20038;-73
2022/01/06 08:15:52;;;;;;;19.48;3.25;;;;;;;1.21;100.00;101999.94;4843964;29;20046;-78
2022/01/06 08:18:17;;;;;;;15.23;3.08;;;;;;;1.29;100.00;101990.47;4841973;29;20387;-80
2022/01/06 08:20:42;;;;;;;15.95;3.00;;;;;;;1.32;100.00;101995.75;4842034;29;20026;-76
2022/01/06 08:23:08;;;;;;;11.18;3.17;;;;;;;1.36;100.00;101997.53;4837087;29;20045;-75
2022/01/06 08:25:35;;;;;;;19.50;5.05;;;;;;;1.45;100.00;101997.63;4834397;29;20050;-78
2022/01/06 08:28:01;;;;;;;24.52;6.57;;;;;;;1.58;100.00;102003.00;4844067;29;20056;-77
2022/01/06 08:30:27;;;;;;;17.40;3.88;;;;;;;1.71;100.00;102009.22;4843689;29;20038;-72
2022/01/06 08:33:02;;;;;;;18.65;4.07;;;;;;;1.84;100.00;102000.66;4836715;29;20121;-77
2022/01/06 08:35:27;;;;;;;16.10;3.17;;;;;;;2.03;100.00;102004.31;4833954;29;20037;-75
2022/01/06 08:37:53;;;;;;;17.52;4.38;;;;;;;2.16;100.00;102007.91;4842916;29;20387;-77
2022/01/06 08:40:19;;;;;;;20.40;5.75;;;;;;;2.33;100.00;102008.06;4843117;29;20109;-76
2022/01/06 08:42:46;;;;;;;16.88;4.70;;;;;;;2.47;100.00;102010.81;4842939;29;20126;-76
2022/01/06 08:45:12;;;;;;;20.33;4.28;;;;;;;2.61;100.00;102013.53;4843568;29;20383;-77
2022/01/06 08:47:38;;;;;;;19.38;5.68;;;;;;;2.74;100.00;102006.63;4842754;29;20577;-79
2022/01/06 08:50:04;;;;;;;15.90;3.60;;;;;;;2.90;100.00;102005.88;4843354;29;20042;-78
2022/01/06 08:52:29;;;;;;;26.48;5.97;;;;;;;3.05;100.00;102012.91;4843023;29;20558;-76
2022/01/06 08:54:54;;;;;;;13.65;3.50;;;;;;;3.23;100.00;102009.50;4840724;29;20030;-78
2022/01/06 08:57:21;;;;;;;10.23;2.92;;;;;;;3.31;100.00;102014.78;4841959;29;20068;-73
2022/01/06 08:59:47;;;;;;;12.75;3.05;;;;;;;3.43;100.00;102012.22;4830350;29;20029;-79
2022/01/06 09:02:12;;;;;;;20.55;3.45;;;;;;;3.55;100.00;102018.38;4842935;29;20026;-75
2022/01/06 09:04:37;;;;;;;15.48;3.30;;;;;;;3.69;100.00;102011.41;4842882;29;20117;-79
2022/01/06 09:07:04;;;;;;;13.80;2.97;;;;;;;3.83;99.57;101998.34;4842846;29;20113;-78
2022/01/06 09:09:30;;;;;;;16.10;4.43;;;;;;;3.94;98.18;102003.63;4829665;29;20460;-77
2022/01/06 09:11:55;;;;;;;19.45;5.03;;;;;;;4.12;96.61;102001.88;4838480;29;20111;-76
2022/01/06 09:14:22;;;;;;;14.88;3.88;;;;;;;4.17;96.00;102006.25;4842492;29;20046;-77
2022/01/06 09:16:49;;;;;;;13.68;3.17;;;;;;;4.17;95.08;101998.41;4842174;29;20497;-76
2022/01/06 09:19:14;;;;;;;15.52;3.13;;;;;;;4.10;94.74;102008.00;4835486;29;20385;-78
2022/01/06 09:21:40;;;;;;;15.43;3.08;;;;;;;4.14;94.82;102005.38;4840996;29;20040;-77
2022/01/06 09:24:09;;;;;;;11.23;2.50;;;;;;;4.19;94.34;101999.25;4842610;29;20034;-79
2022/01/06 09:26:36;;;;;;;14.70;3.50;;;;;;;4.20;93.59;102005.38;4843419;29;20082;-80
2022/01/06 09:29:07;;;;;;;18.42;3.35;;;;;;;4.18;92.94;102007.13;4842418;29;20026;-80
2022/01/06 09:31:35;;;;;;;12.20;3.92;;;;;;;4.24;93.43;102008.00;4824333;29;20027;-74
2022/01/06 09:34:11;;;;;;;12.50;3.50;;;;;;;4.48;92.02;102006.25;5110049;27;20388;-80
2022/01/06 09:36:39;;;;;;;16.15;3.47;;;;;;;4.74;92.14;102005.34;5102836;28;20086;-80
2022/01/06 09:39:07;;;;;;;21.50;4.07;;;;;;;5.30;91.67;102003.44;5089572;28;20032;-78
2022/01/06 09:41:33;;;;;;;21.63;4.20;;;;;;;5.62;86.21;102012.91;5089857;28;20039;-77
2022/01/06 09:44:00;;;;;;;10.18;3.28;;;;;;;5.89;85.63;102013.63;5090151;28;20039;-73
2022/01/06 09:46:27;;;;;;;11.93;3.20;;;;;;;6.86;83.49;102026.00;5089621;28;20032;-77
2022/01/06 09:48:57;;;;;;;10.90;3.35;;;;;;;7.90;78.03;102016.81;5093118;28;20020;-76
2022/01/06 09:51:23;;;;;;;14.90;3.42;;;;;;;8.57;74.75;102008.75;5081785;28;20028;-78
2022/01/06 09:53:48;;;;;;;12.95;3.60;;;;;;;9.22;69.75;102022.50;5075192;28;20471;-77
2022/01/06 09:56:14;;;;;;;10.40;3.10;;;;;;;9.65;66.46;102022.50;5102317;28;20032;-76
2022/01/06 09:58:39;;;;;;;12.25;3.08;;;;;;;10.06;66.19;102022.44;5089641;28;20451;-73
2022/01/06 10:01:05;;;;;;;13.25;3.13;;;;;;;10.47;64.12;102020.59;5087975;28;20089;-75
2022/01/06 10:03:33;;;;;;;11.45;2.75;;;;;;;11.01;62.92;102020.97;5089466;28;20028;-76
2022/01/06 10:06:18;;;;;;;9.68;3.10;;;;;;;11.11;61.47;102018.91;5088484;28;20040;-74
2022/01/06 10:09:05;;;;;;;10.18;3.20;;;;;;;11.82;60.36;102015.97;5074992;28;20122;-76
2022/01/06 10:11:33;;;;;;;12.10;3.15;;;;;;;12.33;57.65;102009.91;5068294;28;20048;-76
2022/01/06 10:14:06;;;;;;;21.25;3.28;;;;;;;12.56;56.03;102010.94;5069211;28;20031;-74
2022/01/06 10:16:32;;;;;;;12.65;3.00;;;;;;;12.53;56.14;102013.66;5076564;28;20022;-77
2022/01/06 10:18:57;;;;;;;11.18;2.65;;;;;;;12.43;57.58;102015.78;5072947;28;20134;-73
2022/01/06 10:21:24;;;;;;;8.85;2.67;;;;;;;12.72;57.42;102009.44;5087292;28;20452;-77
2022/01/06 10:24:03;;;;;;;11.32;2.72;;;;;;;12.84;55.95;102010.81;5083874;28;20035;-78
2022/01/06 10:26:28;;;;;;;8.85;2.53;;;;;;;12.39;56.47;102007.06;5087122;28;20028;-76
2022/01/06 10:28:54;;;;;;;12.23;2.78;;;;;;;12.41;57.43;101999.03;5088208;28;20035;-78
2022/01/06 10:31:30;;;;;;;14.55;2.28;;;;;;;12.19;56.75;102004.19;5088994;28;20221;-77
2022/01/06 10:33:56;;;;;;;11.50;2.78;;;;;;;10.98;59.63;102010.44;5088114;28;20079;-78
2022/01/06 10:36:30;;;;;;;8.70;2.40;;;;;;;10.07;63.66;102013.59;5088066;28;20032;-78
2022/01/06 10:39:00;;;;;;;9.25;2.63;;;;;;;10.03;65.63;102013.72;5087422;28;20059;-76
2022/01/06 10:41:27;;;;;;;9.80;2.35;;;;;;;10.02;64.56;102002.25;5087125;28;20024;-75
2022/01/06 10:43:58;;;;;;;9.98;2.60;;;;;;;9.49;64.47;102007.88;5084458;28;20435;-76
2022/01/06 10:46:28;;;;;;;11.20;2.60;;;;;;;8.73;67.99;102005.84;5069698;28;20060;-74
2022/01/06 10:49:03;;;;;;;9.55;1.98;;;;;;;8.24;70.70;102004.91;5073990;28;20094;-76
2022/01/06 10:51:36;;;;;;;37.65;19.58;;;;;;;8.47;72.99;101997.47;5073532;28;20047;-73
2022/01/06 10:54:02;;;;;;;13.02;2.47;;;;;;;8.96;70.70;102003.63;5073110;28;20032;-76
2022/01/06 10:56:28;;;;;;;8.75;1.73;;;;;;;9.77;67.41;101994.91;5074968;28;20077;-74
2022/01/06 10:58:58;;;;;;;8.05;1.90;;;;;;;10.21;65.72;102001.81;5063908;28;20024;-76
2022/01/06 11:01:24;;;;;;;12.55;2.30;;;;;;;9.88;65.50;101993.78;5070455;28;20025;-76
2022/01/06 11:03:49;;;;;;;12.57;2.63;;;;;;;9.27;66.93;102008.31;5073518;28;20036;-75
2022/01/06 11:06:14;;;;;;;8.90;2.20;;;;;;;8.63;69.57;102002.50;5073453;28;20103;-75
2022/01/06 11:08:41;;;;;;;8.48;2.50;;;;;;;8.77;67.17;102002.25;5074315;28;20093;-76
2022/01/06 11:13:34;;;;;;;9.82;1.80;;;;;;;7.93;69.78;102002.72;5069577;28;20036;-75
2022/01/06 11:16:00;;;;;;;5.40;1.70;;;;;;;7.70;71.08;102002.16;5074259;28;20128;-73
2022/01/06 11:18:26;;;;;;;8.43;2.08;;;;;;;7.34;71.74;102014.97;5073060;28;20024;-75
2022/01/06 11:21:00;;;;;;;9.32;1.70;;;;;;;7.03;73.80;102011.81;5072458;28;20025;-74
2022/01/06 11:23:26;;;;;;;4.68;1.92;;;;;;;6.74;75.42;102005.09;5067388;28;20028;-76
2022/01/06 11:26:11;;;;;;;5.20;1.92;;;;;;;6.56;76.38;102014.06;5074365;28;20027;-76
2022/01/06 11:28:38;;;;;;;10.40;2.20;;;;;;;6.55;76.70;102001.78;5074409;28;20017;-76
2022/01/06 11:31:21;;;;;;;7.18;2.00;;;;;;;6.44;77.55;102004.47;5072231;28;20131;-76
2022/01/06 11:33:48;;;;;;;9.25;2.30;;;;;;;6.30;78.89;101996.72;5070226;28;20044;-75